sensor_id;sensor_type;location;lat;lon;timestamp;P1;durP1;ratioP1;P2;durP2;ratioP2
48881;SDS011;57063;51.406;-2.402;2023-11-19T00:01:25;58.53;;;7.40;;
48881;SDS011;57063;51.406;-2.402;2023-11-19T00:03:51;37.05;;;6.10;;
48881;SDS011;57063;51.406;-2.402;2023-11-19T00:06:16;36.00;;;6.25;;
48881;SDS011;57063;51.406;-2.402;2023-11-19T00:08:42;40.60;;;6.20;;
48881;SDS011;57063;51.406;-2.402;2023-11-19T00:11:08;38.88;;;5.95;;
48881;SDS011;57063;51.406;-2.402;2023-11-19T00:13:34;35.47;;;7.93;;
48881;SDS011;57063;51.406;-2.402;2023-11-19T00:15:59;45.10;;;7.60;;
48881;SDS011;57063;51.406;-2.402;2023-11-19T00:18:25;40.00;;;7.13;;
48881;SDS011;57063;51.406;-2.402;2023-11-19T00:20:50;45.72;;;6.85;;
48881;SDS011;57063;51.406;-2.402;2023-11-19T00:23:15;41.55;;;7.45;;
48881;SDS011;57063;51.406;-2.402;2023-11-19T00:25:41;43.17;;;6.82;;
48881;SDS011;57063;51.406;-2.402;2023-11-19T00:28:06;49.20;;;6.68;;
48881;SDS011;57063;51.406;-2.402;2023-11-19T00:30:31;50.05;;;6.32;;
48881;SDS011;57063;51.406;-2.402;2023-11-19T00:32:57;31.13;;;5.95;;
48881;SDS011;57063;51.406;-2.402;2023-11-19T00:35:22;35.85;;;6.93;;
48881;SDS011;57063;51.406;-2.402;2023-11-19T00:37:47;36.08;;;6.25;;
48881;SDS011;57063;51.406;-2.402;2023-11-19T00:40:13;33.83;;;6.78;;
48881;SDS011;57063;51.406;-2.402;2023-11-19T00:42:40;46.10;;;7.05;;
48881;SDS011;57063;51.406;-2.402;2023-11-19T00:45:06;41.80;;;7.35;;
48881;SDS011;57063;51.406;-2.402;2023-11-19T00:47:35;42.88;;;7.85;;
48881;SDS011;57063;51.406;-2.402;2023-11-19T00:50:01;38.33;;;5.55;;
48881;SDS011;57063;51.406;-2.402;2023-11-19T00:52:27;41.63;;;7.22;;
48881;SDS011;57063;51.406;-2.402;2023-11-19T00:54:52;38.47;;;5.97;;
48881;SDS011;57063;51.406;-2.402;2023-11-19T00:57:17;42.20;;;6.63;;
48881;SDS011;57063;51.406;-2.402;2023-11-19T00:59:43;47.65;;;7.70;;
48881;SDS011;57063;51.406;-2.402;2023-11-19T01:02:08;44.75;;;6.45;;
48881;SDS011;57063;51.406;-2.402;2023-11-19T01:04:34;43.45;;;6.43;;
48881;SDS011;57063;51.406;-2.402;2023-11-19T01:07:03;45.95;;;7.32;;
48881;SDS011;57063;51.406;-2.402;2023-11-19T01:09:30;48.95;;;8.38;;
48881;SDS011;57063;51.406;-2.402;2023-11-19T01:11:59;51.20;;;6.80;;
48881;SDS011;57063;51.406;-2.402;2023-11-19T01:14:25;45.03;;;9.30;;
48881;SDS011;57063;51.406;-2.402;2023-11-19T01:16:51;49.40;;;7.38;;
48881;SDS011;57063;51.406;-2.402;2023-11-19T01:19:18;41.63;;;6.07;;
48881;SDS011;57063;51.406;-2.402;2023-11-19T01:21:44;46.50;;;7.55;;
48881;SDS011;57063;51.406;-2.402;2023-11-19T01:24:09;39.35;;;7.72;;
48881;SDS011;57063;51.406;-2.402;2023-11-19T01:26:35;48.47;;;6.30;;
48881;SDS011;57063;51.406;-2.402;2023-11-19T01:29:00;47.17;;;7.18;;
48881;SDS011;57063;51.406;-2.402;2023-11-19T01:31:26;42.05;;;6.45;;
48881;SDS011;57063;51.406;-2.402;2023-11-19T01:33:51;37.20;;;5.70;;
48881;SDS011;57063;51.406;-2.402;2023-11-19T01:36:17;48.38;;;7.10;;
48881;SDS011;57063;51.406;-2.402;2023-11-19T01:38:42;36.38;;;6.88;;
48881;SDS011;57063;51.406;-2.402;2023-11-19T01:41:07;43.50;;;7.97;;
48881;SDS011;57063;51.406;-2.402;2023-11-19T01:43:37;47.45;;;7.32;;
48881;SDS011;57063;51.406;-2.402;2023-11-19T01:46:05;34.75;;;6.50;;
48881;SDS011;57063;51.406;-2.402;2023-11-19T01:48:32;45.60;;;7.45;;
48881;SDS011;57063;51.406;-2.402;2023-11-19T01:50:58;34.13;;;5.50;;
48881;SDS011;57063;51.406;-2.402;2023-11-19T01:53:25;44.72;;;6.82;;
48881;SDS011;57063;51.406;-2.402;2023-11-19T01:55:51;32.53;;;4.88;;
48881;SDS011;57063;51.406;-2.402;2023-11-19T01:58:17;42.72;;;6.05;;
48881;SDS011;57063;51.406;-2.402;2023-11-19T02:00:44;43.70;;;6.47;;
48881;SDS011;57063;51.406;-2.402;2023-11-19T02:03:09;35.88;;;6.32;;
48881;SDS011;57063;51.406;-2.402;2023-11-19T02:05:36;39.15;;;6.53;;
48881;SDS011;57063;51.406;-2.402;2023-11-19T02:08:02;34.83;;;5.60;;
48881;SDS011;57063;51.406;-2.402;2023-11-19T02:10:28;42.15;;;8.48;;
48881;SDS011;57063;51.406;-2.402;2023-11-19T02:12:53;41.67;;;5.88;;
48881;SDS011;57063;51.406;-2.402;2023-11-19T02:15:20;38.92;;;8.10;;
48881;SDS011;57063;51.406;-2.402;2023-11-19T02:17:47;33.17;;;5.90;;
48881;SDS011;57063;51.406;-2.402;2023-11-19T02:20:12;36.58;;;8.18;;
48881;SDS011;57063;51.406;-2.402;2023-11-19T02:22:40;40.90;;;5.55;;
48881;SDS011;57063;51.406;-2.402;2023-11-19T02:25:10;34.58;;;4.80;;
48881;SDS011;57063;51.406;-2.402;2023-11-19T02:30:07;43.63;;;6.68;;
48881;SDS011;57063;51.406;-2.402;2023-11-19T02:32:33;52.72;;;9.90;;
48881;SDS011;57063;51.406;-2.402;2023-11-19T02:35:00;35.45;;;5.78;;
48881;SDS011;57063;51.406;-2.402;2023-11-19T02:37:26;34.10;;;5.18;;
48881;SDS011;57063;51.406;-2.402;2023-11-19T02:39:53;33.30;;;5.55;;
48881;SDS011;57063;51.406;-2.402;2023-11-19T02:42:19;38.10;;;6.15;;
48881;SDS011;57063;51.406;-2.402;2023-11-19T02:44:45;43.60;;;5.40;;
48881;SDS011;57063;51.406;-2.402;2023-11-19T02:47:11;42.63;;;5.57;;
48881;SDS011;57063;51.406;-2.402;2023-11-19T02:49:36;37.78;;;6.75;;
48881;SDS011;57063;51.406;-2.402;2023-11-19T02:52:02;35.40;;;6.70;;
48881;SDS011;57063;51.406;-2.402;2023-11-19T02:54:30;36.38;;;7.60;;
48881;SDS011;57063;51.406;-2.402;2023-11-19T02:56:59;36.63;;;5.45;;
48881;SDS011;57063;51.406;-2.402;2023-11-19T02:59:26;38.88;;;5.93;;
48881;SDS011;57063;51.406;-2.402;2023-11-19T03:01:53;34.58;;;4.88;;
48881;SDS011;57063;51.406;-2.402;2023-11-19T03:04:20;29.55;;;5.85;;
48881;SDS011;57063;51.406;-2.402;2023-11-19T03:06:45;32.17;;;5.28;;
48881;SDS011;57063;51.406;-2.402;2023-11-19T03:09:11;34.35;;;5.43;;
48881;SDS011;57063;51.406;-2.402;2023-11-19T03:11:37;34.78;;;5.32;;
48881;SDS011;57063;51.406;-2.402;2023-11-19T03:14:02;35.65;;;5.85;;
48881;SDS011;57063;51.406;-2.402;2023-11-19T03:16:28;31.33;;;6.00;;
48881;SDS011;57063;51.406;-2.402;2023-11-19T03:18:54;32.83;;;6.13;;
48881;SDS011;57063;51.406;-2.402;2023-11-19T03:21:26;42.40;;;6.15;;
48881;SDS011;57063;51.406;-2.402;2023-11-19T03:23:52;40.67;;;5.70;;
48881;SDS011;57063;51.406;-2.402;2023-11-19T03:26:18;25.52;;;4.63;;
48881;SDS011;57063;51.406;-2.402;2023-11-19T03:28:43;39.25;;;5.03;;
48881;SDS011;57063;51.406;-2.402;2023-11-19T03:31:08;47.17;;;6.50;;
48881;SDS011;57063;51.406;-2.402;2023-11-19T03:33:34;32.45;;;6.03;;
48881;SDS011;57063;51.406;-2.402;2023-11-19T03:35:59;33.95;;;5.35;;
48881;SDS011;57063;51.406;-2.402;2023-11-19T03:38:24;30.92;;;4.90;;
48881;SDS011;57063;51.406;-2.402;2023-11-19T03:40:50;38.55;;;6.22;;
48881;SDS011;57063;51.406;-2.402;2023-11-19T03:43:15;36.83;;;5.40;;
48881;SDS011;57063;51.406;-2.402;2023-11-19T03:45:40;41.03;;;5.78;;
48881;SDS011;57063;51.406;-2.402;2023-11-19T03:48:06;29.58;;;5.25;;
48881;SDS011;57063;51.406;-2.402;2023-11-19T03:50:31;41.90;;;6.55;;
48881;SDS011;57063;51.406;-2.402;2023-11-19T03:52:56;35.20;;;5.80;;
48881;SDS011;57063;51.406;-2.402;2023-11-19T03:55:22;29.85;;;6.07;;
48881;SDS011;57063;51.406;-2.402;2023-11-19T03:57:47;29.48;;;6.05;;
48881;SDS011;57063;51.406;-2.402;2023-11-19T04:00:13;42.03;;;6.57;;
48881;SDS011;57063;51.406;-2.402;2023-11-19T04:02:40;42.55;;;5.85;;
48881;SDS011;57063;51.406;-2.402;2023-11-19T04:05:05;37.70;;;5.93;;
48881;SDS011;57063;51.406;-2.402;2023-11-19T04:07:32;43.58;;;8.73;;
48881;SDS011;57063;51.406;-2.402;2023-11-19T04:09:57;36.45;;;5.05;;
48881;SDS011;57063;51.406;-2.402;2023-11-19T04:12:23;34.10;;;5.13;;
48881;SDS011;57063;51.406;-2.402;2023-11-19T04:14:48;42.08;;;5.82;;
48881;SDS011;57063;51.406;-2.402;2023-11-19T04:17:14;25.35;;;4.28;;
48881;SDS011;57063;51.406;-2.402;2023-11-19T04:19:39;30.67;;;4.20;;
48881;SDS011;57063;51.406;-2.402;2023-11-19T04:22:07;28.88;;;4.68;;
48881;SDS011;57063;51.406;-2.402;2023-11-19T04:24:33;30.30;;;4.90;;
48881;SDS011;57063;51.406;-2.402;2023-11-19T04:26:59;20.75;;;3.15;;
48881;SDS011;57063;51.406;-2.402;2023-11-19T04:29:24;24.23;;;4.07;;
48881;SDS011;57063;51.406;-2.402;2023-11-19T04:31:50;29.15;;;4.15;;
48881;SDS011;57063;51.406;-2.402;2023-11-19T04:34:15;27.55;;;4.90;;
48881;SDS011;57063;51.406;-2.402;2023-11-19T04:36:40;24.77;;;3.60;;
48881;SDS011;57063;51.406;-2.402;2023-11-19T04:39:06;23.92;;;4.40;;
48881;SDS011;57063;51.406;-2.402;2023-11-19T04:41:48;27.80;;;3.97;;
48881;SDS011;57063;51.406;-2.402;2023-11-19T04:44:15;34.97;;;5.55;;
48881;SDS011;57063;51.406;-2.402;2023-11-19T04:46:41;27.92;;;4.05;;
48881;SDS011;57063;51.406;-2.402;2023-11-19T04:49:09;19.50;;;3.20;;
48881;SDS011;57063;51.406;-2.402;2023-11-19T04:51:42;21.45;;;3.70;;
48881;SDS011;57063;51.406;-2.402;2023-11-19T04:54:08;21.00;;;3.83;;
48881;SDS011;57063;51.406;-2.402;2023-11-19T04:56:35;37.95;;;5.13;;
48881;SDS011;57063;51.406;-2.402;2023-11-19T04:59:04;31.33;;;5.32;;
48881;SDS011;57063;51.406;-2.402;2023-11-19T05:01:30;27.85;;;3.92;;
48881;SDS011;57063;51.406;-2.402;2023-11-19T05:03:56;30.30;;;4.85;;
48881;SDS011;57063;51.406;-2.402;2023-11-19T05:06:25;43.88;;;6.25;;
48881;SDS011;57063;51.406;-2.402;2023-11-19T05:08:52;26.05;;;5.20;;
48881;SDS011;57063;51.406;-2.402;2023-11-19T05:11:17;29.83;;;5.22;;
48881;SDS011;57063;51.406;-2.402;2023-11-19T05:13:44;33.80;;;4.88;;
48881;SDS011;57063;51.406;-2.402;2023-11-19T05:16:10;37.92;;;4.22;;
48881;SDS011;57063;51.406;-2.402;2023-11-19T05:18:39;29.98;;;5.63;;
48881;SDS011;57063;51.406;-2.402;2023-11-19T05:21:04;35.67;;;4.97;;
48881;SDS011;57063;51.406;-2.402;2023-11-19T05:23:30;39.65;;;5.38;;
48881;SDS011;57063;51.406;-2.402;2023-11-19T05:25:55;39.67;;;5.63;;
48881;SDS011;57063;51.406;-2.402;2023-11-19T05:28:20;31.48;;;4.57;;
48881;SDS011;57063;51.406;-2.402;2023-11-19T05:30:46;30.80;;;4.95;;
48881;SDS011;57063;51.406;-2.402;2023-11-19T05:33:11;37.45;;;5.57;;
48881;SDS011;57063;51.406;-2.402;2023-11-19T05:35:36;36.67;;;7.38;;
48881;SDS011;57063;51.406;-2.402;2023-11-19T05:38:02;33.25;;;5.13;;
48881;SDS011;57063;51.406;-2.402;2023-11-19T05:40:27;33.90;;;5.80;;
48881;SDS011;57063;51.406;-2.402;2023-11-19T05:42:53;29.25;;;4.80;;
48881;SDS011;57063;51.406;-2.402;2023-11-19T05:45:18;33.58;;;4.82;;
48881;SDS011;57063;51.406;-2.402;2023-11-19T05:47:43;34.17;;;5.00;;
48881;SDS011;57063;51.406;-2.402;2023-11-19T05:50:09;39.90;;;5.97;;
48881;SDS011;57063;51.406;-2.402;2023-11-19T05:52:35;30.35;;;5.20;;
48881;SDS011;57063;51.406;-2.402;2023-11-19T05:55:00;34.97;;;5.03;;
48881;SDS011;57063;51.406;-2.402;2023-11-19T05:57:29;29.10;;;8.32;;
48881;SDS011;57063;51.406;-2.402;2023-11-19T05:59:54;37.40;;;7.10;;
48881;SDS011;57063;51.406;-2.402;2023-11-19T06:02:20;36.20;;;5.28;;
48881;SDS011;57063;51.406;-2.402;2023-11-19T06:04:45;28.10;;;4.57;;
48881;SDS011;57063;51.406;-2.402;2023-11-19T06:07:13;35.13;;;4.85;;
48881;SDS011;57063;51.406;-2.402;2023-11-19T06:09:38;37.35;;;5.47;;
48881;SDS011;57063;51.406;-2.402;2023-11-19T06:12:05;24.10;;;4.68;;
48881;SDS011;57063;51.406;-2.402;2023-11-19T06:14:31;32.90;;;5.13;;
48881;SDS011;57063;51.406;-2.402;2023-11-19T06:16:56;35.75;;;5.63;;
48881;SDS011;57063;51.406;-2.402;2023-11-19T06:19:22;29.38;;;5.72;;
48881;SDS011;57063;51.406;-2.402;2023-11-19T06:21:49;31.88;;;4.93;;
48881;SDS011;57063;51.406;-2.402;2023-11-19T06:24:15;29.15;;;5.15;;
48881;SDS011;57063;51.406;-2.402;2023-11-19T06:26:40;29.27;;;5.72;;
48881;SDS011;57063;51.406;-2.402;2023-11-19T06:29:05;26.30;;;4.65;;
48881;SDS011;57063;51.406;-2.402;2023-11-19T06:31:31;32.33;;;6.07;;
48881;SDS011;57063;51.406;-2.402;2023-11-19T06:33:56;29.92;;;5.25;;
48881;SDS011;57063;51.406;-2.402;2023-11-19T06:36:21;40.55;;;5.70;;
48881;SDS011;57063;51.406;-2.402;2023-11-19T06:38:47;27.90;;;4.70;;
48881;SDS011;57063;51.406;-2.402;2023-11-19T06:41:12;22.67;;;4.35;;
48881;SDS011;57063;51.406;-2.402;2023-11-19T06:43:37;27.10;;;4.78;;
48881;SDS011;57063;51.406;-2.402;2023-11-19T06:46:03;36.72;;;5.30;;
48881;SDS011;57063;51.406;-2.402;2023-11-19T06:48:31;34.38;;;5.55;;
48881;SDS011;57063;51.406;-2.402;2023-11-19T06:50:59;21.00;;;4.13;;
48881;SDS011;57063;51.406;-2.402;2023-11-19T06:53:25;24.60;;;4.25;;
48881;SDS011;57063;51.406;-2.402;2023-11-19T06:55:52;26.58;;;3.75;;
48881;SDS011;57063;51.406;-2.402;2023-11-19T06:58:18;36.47;;;6.32;;
48881;SDS011;57063;51.406;-2.402;2023-11-19T07:00:44;21.55;;;3.30;;
48881;SDS011;57063;51.406;-2.402;2023-11-19T07:03:10;20.17;;;3.58;;
48881;SDS011;57063;51.406;-2.402;2023-11-19T07:05:36;24.83;;;3.90;;
48881;SDS011;57063;51.406;-2.402;2023-11-19T07:08:03;25.08;;;3.60;;
48881;SDS011;57063;51.406;-2.402;2023-11-19T07:10:29;22.05;;;3.45;;
48881;SDS011;57063;51.406;-2.402;2023-11-19T07:12:55;22.13;;;3.63;;
48881;SDS011;57063;51.406;-2.402;2023-11-19T07:15:21;20.02;;;4.00;;
48881;SDS011;57063;51.406;-2.402;2023-11-19T07:17:46;24.17;;;3.97;;
48881;SDS011;57063;51.406;-2.402;2023-11-19T07:20:13;29.17;;;4.60;;
48881;SDS011;57063;51.406;-2.402;2023-11-19T07:22:42;15.05;;;2.85;;
48881;SDS011;57063;51.406;-2.402;2023-11-19T07:25:12;31.52;;;4.60;;
48881;SDS011;57063;51.406;-2.402;2023-11-19T07:27:38;17.77;;;2.58;;
48881;SDS011;57063;51.406;-2.402;2023-11-19T07:30:04;33.22;;;4.40;;
48881;SDS011;57063;51.406;-2.402;2023-11-19T07:32:32;36.78;;;4.68;;
48881;SDS011;57063;51.406;-2.402;2023-11-19T07:34:57;20.48;;;4.00;;
48881;SDS011;57063;51.406;-2.402;2023-11-19T07:37:23;35.38;;;4.57;;
48881;SDS011;57063;51.406;-2.402;2023-11-19T07:39:48;34.05;;;5.25;;
48881;SDS011;57063;51.406;-2.402;2023-11-19T07:42:13;32.85;;;6.40;;
48881;SDS011;57063;51.406;-2.402;2023-11-19T07:44:39;26.45;;;3.65;;
48881;SDS011;57063;51.406;-2.402;2023-11-19T07:47:04;27.85;;;4.43;;
48881;SDS011;57063;51.406;-2.402;2023-11-19T07:49:29;31.30;;;5.13;;
48881;SDS011;57063;51.406;-2.402;2023-11-19T07:51:55;33.90;;;4.68;;
48881;SDS011;57063;51.406;-2.402;2023-11-19T07:54:21;30.67;;;4.50;;
48881;SDS011;57063;51.406;-2.402;2023-11-19T07:56:46;27.42;;;4.63;;
48881;SDS011;57063;51.406;-2.402;2023-11-19T07:59:12;31.63;;;5.22;;
48881;SDS011;57063;51.406;-2.402;2023-11-19T08:01:37;29.05;;;4.25;;
48881;SDS011;57063;51.406;-2.402;2023-11-19T08:04:02;25.80;;;3.50;;
48881;SDS011;57063;51.406;-2.402;2023-11-19T08:06:28;26.60;;;4.47;;
48881;SDS011;57063;51.406;-2.402;2023-11-19T08:08:54;22.73;;;3.72;;
48881;SDS011;57063;51.406;-2.402;2023-11-19T08:11:19;25.00;;;4.25;;
48881;SDS011;57063;51.406;-2.402;2023-11-19T08:13:45;35.83;;;4.53;;
48881;SDS011;57063;51.406;-2.402;2023-11-19T08:16:10;31.42;;;4.10;;
48881;SDS011;57063;51.406;-2.402;2023-11-19T08:18:36;29.75;;;4.28;;
48881;SDS011;57063;51.406;-2.402;2023-11-19T08:21:01;23.45;;;3.80;;
48881;SDS011;57063;51.406;-2.402;2023-11-19T08:23:29;24.58;;;3.72;;
48881;SDS011;57063;51.406;-2.402;2023-11-19T08:25:55;31.17;;;4.10;;
48881;SDS011;57063;51.406;-2.402;2023-11-19T08:28:20;27.90;;;4.38;;
48881;SDS011;57063;51.406;-2.402;2023-11-19T08:30:46;36.15;;;5.78;;
48881;SDS011;57063;51.406;-2.402;2023-11-19T08:33:11;31.30;;;5.20;;
48881;SDS011;57063;51.406;-2.402;2023-11-19T08:35:37;31.13;;;4.97;;
48881;SDS011;57063;51.406;-2.402;2023-11-19T08:38:02;37.28;;;5.65;;
48881;SDS011;57063;51.406;-2.402;2023-11-19T08:40:28;27.15;;;4.13;;
48881;SDS011;57063;51.406;-2.402;2023-11-19T08:42:54;30.77;;;4.93;;
48881;SDS011;57063;51.406;-2.402;2023-11-19T08:45:21;31.45;;;5.78;;
48881;SDS011;57063;51.406;-2.402;2023-11-19T08:47:46;40.72;;;6.65;;
48881;SDS011;57063;51.406;-2.402;2023-11-19T08:50:11;28.83;;;4.95;;
48881;SDS011;57063;51.406;-2.402;2023-11-19T08:52:37;31.73;;;5.93;;
48881;SDS011;57063;51.406;-2.402;2023-11-19T08:55:03;32.58;;;6.18;;
48881;SDS011;57063;51.406;-2.402;2023-11-19T08:57:30;32.53;;;4.22;;
48881;SDS011;57063;51.406;-2.402;2023-11-19T08:59:55;31.90;;;5.40;;
48881;SDS011;57063;51.406;-2.402;2023-11-19T09:02:21;35.17;;;5.05;;
48881;SDS011;57063;51.406;-2.402;2023-11-19T09:04:46;31.90;;;5.72;;
48881;SDS011;57063;51.406;-2.402;2023-11-19T09:07:11;42.10;;;6.30;;
48881;SDS011;57063;51.406;-2.402;2023-11-19T09:09:37;23.75;;;3.92;;
48881;SDS011;57063;51.406;-2.402;2023-11-19T09:12:03;32.50;;;5.15;;
48881;SDS011;57063;51.406;-2.402;2023-11-19T09:14:29;35.80;;;5.50;;
48881;SDS011;57063;51.406;-2.402;2023-11-19T09:16:55;38.45;;;5.35;;
48881;SDS011;57063;51.406;-2.402;2023-11-19T09:19:21;33.55;;;5.25;;
48881;SDS011;57063;51.406;-2.402;2023-11-19T09:21:46;35.00;;;6.28;;
48881;SDS011;57063;51.406;-2.402;2023-11-19T09:24:14;32.28;;;6.10;;
48881;SDS011;57063;51.406;-2.402;2023-11-19T09:26:40;24.67;;;4.18;;
48881;SDS011;57063;51.406;-2.402;2023-11-19T09:29:09;26.15;;;3.67;;
48881;SDS011;57063;51.406;-2.402;2023-11-19T09:31:34;25.77;;;4.65;;
48881;SDS011;57063;51.406;-2.402;2023-11-19T09:34:00;21.65;;;5.05;;
48881;SDS011;57063;51.406;-2.402;2023-11-19T09:36:26;25.75;;;4.03;;
48881;SDS011;57063;51.406;-2.402;2023-11-19T09:38:51;23.42;;;3.75;;
48881;SDS011;57063;51.406;-2.402;2023-11-19T09:41:16;25.50;;;4.70;;
48881;SDS011;57063;51.406;-2.402;2023-11-19T09:43:44;26.67;;;4.65;;
48881;SDS011;57063;51.406;-2.402;2023-11-19T09:46:10;29.20;;;5.28;;
48881;SDS011;57063;51.406;-2.402;2023-11-19T09:48:38;25.70;;;3.80;;
48881;SDS011;57063;51.406;-2.402;2023-11-19T09:51:05;22.13;;;3.63;;
48881;SDS011;57063;51.406;-2.402;2023-11-19T09:53:31;28.08;;;5.50;;
48881;SDS011;57063;51.406;-2.402;2023-11-19T09:55:58;24.10;;;3.58;;
48881;SDS011;57063;51.406;-2.402;2023-11-19T09:58:26;19.08;;;2.47;;
48881;SDS011;57063;51.406;-2.402;2023-11-19T10:00:51;13.40;;;2.92;;
48881;SDS011;57063;51.406;-2.402;2023-11-19T10:03:17;21.88;;;3.65;;
48881;SDS011;57063;51.406;-2.402;2023-11-19T10:05:43;19.15;;;3.17;;
48881;SDS011;57063;51.406;-2.402;2023-11-19T10:08:08;14.27;;;3.33;;
48881;SDS011;57063;51.406;-2.402;2023-11-19T10:10:35;12.40;;;2.00;;
48881;SDS011;57063;51.406;-2.402;2023-11-19T10:13:01;16.02;;;2.58;;
48881;SDS011;57063;51.406;-2.402;2023-11-19T10:15:26;22.33;;;3.25;;
48881;SDS011;57063;51.406;-2.402;2023-11-19T10:17:55;22.05;;;3.25;;
48881;SDS011;57063;51.406;-2.402;2023-11-19T10:20:21;21.23;;;4.28;;
48881;SDS011;57063;51.406;-2.402;2023-11-19T10:22:47;23.52;;;4.88;;
48881;SDS011;57063;51.406;-2.402;2023-11-19T10:25:22;20.05;;;3.90;;
48881;SDS011;57063;51.406;-2.402;2023-11-19T10:27:49;18.73;;;3.25;;
48881;SDS011;57063;51.406;-2.402;2023-11-19T10:30:22;9.25;;;2.58;;
48881;SDS011;57063;51.406;-2.402;2023-11-19T10:33:08;21.50;;;4.43;;
48881;SDS011;57063;51.406;-2.402;2023-11-19T10:35:54;23.75;;;4.05;;
48881;SDS011;57063;51.406;-2.402;2023-11-19T10:38:24;17.50;;;2.63;;
48881;SDS011;57063;51.406;-2.402;2023-11-19T10:40:50;19.23;;;3.45;;
48881;SDS011;57063;51.406;-2.402;2023-11-19T10:43:17;24.23;;;3.20;;
48881;SDS011;57063;51.406;-2.402;2023-11-19T10:45:49;28.80;;;4.05;;
48881;SDS011;57063;51.406;-2.402;2023-11-19T10:48:15;15.73;;;3.30;;
48881;SDS011;57063;51.406;-2.402;2023-11-19T10:50:42;20.42;;;3.78;;
48881;SDS011;57063;51.406;-2.402;2023-11-19T10:53:12;20.77;;;3.92;;
48881;SDS011;57063;51.406;-2.402;2023-11-19T10:55:43;18.13;;;4.10;;
48881;SDS011;57063;51.406;-2.402;2023-11-19T10:58:12;18.27;;;3.38;;
48881;SDS011;57063;51.406;-2.402;2023-11-19T11:00:45;29.30;;;5.18;;
48881;SDS011;57063;51.406;-2.402;2023-11-19T11:03:19;15.45;;;2.72;;
48881;SDS011;57063;51.406;-2.402;2023-11-19T11:05:46;18.48;;;3.20;;
48881;SDS011;57063;51.406;-2.402;2023-11-19T11:08:12;14.57;;;2.67;;
48881;SDS011;57063;51.406;-2.402;2023-11-19T11:10:45;12.77;;;2.53;;
48881;SDS011;57063;51.406;-2.402;2023-11-19T11:13:13;17.38;;;2.50;;
48881;SDS011;57063;51.406;-2.402;2023-11-19T11:15:38;16.45;;;2.42;;
48881;SDS011;57063;51.406;-2.402;2023-11-19T11:18:06;15.00;;;2.83;;
48881;SDS011;57063;51.406;-2.402;2023-11-19T11:20:33;18.15;;;2.97;;
48881;SDS011;57063;51.406;-2.402;2023-11-19T11:25:40;13.52;;;2.05;;
48881;SDS011;57063;51.406;-2.402;2023-11-19T11:28:21;13.95;;;2.38;;
48881;SDS011;57063;51.406;-2.402;2023-11-19T11:36:31;13.95;;;2.58;;
48881;SDS011;57063;51.406;-2.402;2023-11-19T11:39:07;14.70;;;3.13;;
48881;SDS011;57063;51.406;-2.402;2023-11-19T11:41:32;10.32;;;1.83;;
48881;SDS011;57063;51.406;-2.402;2023-11-19T11:43:58;17.40;;;2.80;;
48881;SDS011;57063;51.406;-2.402;2023-11-19T11:49:07;13.00;;;1.90;;
48881;SDS011;57063;51.406;-2.402;2023-11-19T11:52:15;11.55;;;2.53;;
48881;SDS011;57063;51.406;-2.402;2023-11-19T11:57:00;14.52;;;2.63;;
48881;SDS011;57063;51.406;-2.402;2023-11-19T12:02:09;20.77;;;2.67;;
48881;SDS011;57063;51.406;-2.402;2023-11-19T12:04:36;9.98;;;2.00;;
48881;SDS011;57063;51.406;-2.402;2023-11-19T12:07:12;13.60;;;1.83;;
48881;SDS011;57063;51.406;-2.402;2023-11-19T12:09:40;12.98;;;2.90;;
48881;SDS011;57063;51.406;-2.402;2023-11-19T12:12:22;9.35;;;2.00;;
48881;SDS011;57063;51.406;-2.402;2023-11-19T12:17:42;7.40;;;1.30;;
48881;SDS011;57063;51.406;-2.402;2023-11-19T12:20:17;8.10;;;1.25;;
48881;SDS011;57063;51.406;-2.402;2023-11-19T12:22:44;8.95;;;1.45;;
48881;SDS011;57063;51.406;-2.402;2023-11-19T12:25:11;7.45;;;1.25;;
48881;SDS011;57063;51.406;-2.402;2023-11-19T12:27:41;9.77;;;1.10;;
48881;SDS011;57063;51.406;-2.402;2023-11-19T12:30:07;12.45;;;2.40;;
48881;SDS011;57063;51.406;-2.402;2023-11-19T12:32:44;7.60;;;0.98;;
48881;SDS011;57063;51.406;-2.402;2023-11-19T12:35:11;7.28;;;1.27;;
48881;SDS011;57063;51.406;-2.402;2023-11-19T12:37:44;10.63;;;1.52;;
48881;SDS011;57063;51.406;-2.402;2023-11-19T12:40:18;5.45;;;1.15;;
48881;SDS011;57063;51.406;-2.402;2023-11-19T12:42:48;4.47;;;0.65;;
48881;SDS011;57063;51.406;-2.402;2023-11-19T12:45:14;3.25;;;0.80;;
48881;SDS011;57063;51.406;-2.402;2023-11-19T12:47:41;3.97;;;0.73;;
48881;SDS011;57063;51.406;-2.402;2023-11-19T12:50:07;5.25;;;0.90;;
48881;SDS011;57063;51.406;-2.402;2023-11-19T12:52:37;1.85;;;0.57;;
48881;SDS011;57063;51.406;-2.402;2023-11-19T12:55:03;7.95;;;1.27;;
48881;SDS011;57063;51.406;-2.402;2023-11-19T12:57:47;6.50;;;1.05;;
48881;SDS011;57063;51.406;-2.402;2023-11-19T13:00:19;6.15;;;1.45;;
48881;SDS011;57063;51.406;-2.402;2023-11-19T13:02:47;8.02;;;1.23;;
48881;SDS011;57063;51.406;-2.402;2023-11-19T13:08:02;8.00;;;1.20;;
48881;SDS011;57063;51.406;-2.402;2023-11-19T13:10:30;9.57;;;1.63;;
48881;SDS011;57063;51.406;-2.402;2023-11-19T13:13:06;7.55;;;2.03;;
48881;SDS011;57063;51.406;-2.402;2023-11-19T13:15:35;10.45;;;1.85;;
48881;SDS011;57063;51.406;-2.402;2023-11-19T13:18:01;23.65;;;3.97;;
48881;SDS011;57063;51.406;-2.402;2023-11-19T13:20:27;11.63;;;1.63;;
48881;SDS011;57063;51.406;-2.402;2023-11-19T13:23:00;8.82;;;1.65;;
48881;SDS011;57063;51.406;-2.402;2023-11-19T13:25:27;11.55;;;2.55;;
48881;SDS011;57063;51.406;-2.402;2023-11-19T13:27:53;7.85;;;1.60;;
48881;SDS011;57063;51.406;-2.402;2023-11-19T13:30:19;18.27;;;2.67;;
48881;SDS011;57063;51.406;-2.402;2023-11-19T13:32:45;15.95;;;2.67;;
48881;SDS011;57063;51.406;-2.402;2023-11-19T13:35:11;11.30;;;1.80;;
48881;SDS011;57063;51.406;-2.402;2023-11-19T13:37:37;17.98;;;2.28;;
48881;SDS011;57063;51.406;-2.402;2023-11-19T13:40:03;13.55;;;3.58;;
48881;SDS011;57063;51.406;-2.402;2023-11-19T13:42:29;11.40;;;2.15;;
48881;SDS011;57063;51.406;-2.402;2023-11-19T13:44:55;12.90;;;2.10;;
48881;SDS011;57063;51.406;-2.402;2023-11-19T13:47:21;19.23;;;3.22;;
48881;SDS011;57063;51.406;-2.402;2023-11-19T13:49:46;28.77;;;3.90;;
48881;SDS011;57063;51.406;-2.402;2023-11-19T13:52:12;24.63;;;4.90;;
48881;SDS011;57063;51.406;-2.402;2023-11-19T13:54:37;12.27;;;2.78;;
48881;SDS011;57063;51.406;-2.402;2023-11-19T13:57:03;20.42;;;3.35;;
48881;SDS011;57063;51.406;-2.402;2023-11-19T13:59:29;15.57;;;2.50;;
48881;SDS011;57063;51.406;-2.402;2023-11-19T14:01:57;19.65;;;3.58;;
48881;SDS011;57063;51.406;-2.402;2023-11-19T14:04:23;20.23;;;4.40;;
48881;SDS011;57063;51.406;-2.402;2023-11-19T14:06:48;16.23;;;2.80;;
48881;SDS011;57063;51.406;-2.402;2023-11-19T14:09:13;22.27;;;3.13;;
48881;SDS011;57063;51.406;-2.402;2023-11-19T14:11:39;19.23;;;3.03;;
48881;SDS011;57063;51.406;-2.402;2023-11-19T14:14:05;17.13;;;2.20;;
48881;SDS011;57063;51.406;-2.402;2023-11-19T14:16:31;14.23;;;2.70;;
48881;SDS011;57063;51.406;-2.402;2023-11-19T14:18:57;15.73;;;2.92;;
48881;SDS011;57063;51.406;-2.402;2023-11-19T14:21:22;8.60;;;2.58;;
48881;SDS011;57063;51.406;-2.402;2023-11-19T14:23:48;15.98;;;3.08;;
48881;SDS011;57063;51.406;-2.402;2023-11-19T14:26:13;11.70;;;2.97;;
48881;SDS011;57063;51.406;-2.402;2023-11-19T14:28:38;19.80;;;3.30;;
48881;SDS011;57063;51.406;-2.402;2023-11-19T14:31:04;18.90;;;4.93;;
48881;SDS011;57063;51.406;-2.402;2023-11-19T14:33:30;15.93;;;2.33;;
48881;SDS011;57063;51.406;-2.402;2023-11-19T14:35:55;23.45;;;3.60;;
48881;SDS011;57063;51.406;-2.402;2023-11-19T14:38:20;16.23;;;2.88;;
48881;SDS011;57063;51.406;-2.402;2023-11-19T14:40:46;24.73;;;4.10;;
48881;SDS011;57063;51.406;-2.402;2023-11-19T14:43:12;27.15;;;3.92;;
48881;SDS011;57063;51.406;-2.402;2023-11-19T14:45:40;31.17;;;4.65;;